createdAt,value
2017-06-04T00:02:14.133Z,997.99
2017-06-04T00:04:30.277Z,997.96
2017-06-04T00:06:54.508Z,997.92
2017-06-04T00:09:18.702Z,997.91
2017-06-04T00:11:43.911Z,997.89
2017-06-04T00:14:10.130Z,997.93
2017-06-04T00:16:34.436Z,997.83
2017-06-04T00:18:58.604Z,997.81
2017-06-04T00:21:30.363Z,997.79
2017-06-04T00:23:54.543Z,997.75
2017-06-04T00:26:10.180Z,997.73
2017-06-04T00:28:34.409Z,997.75
2017-06-04T00:30:58.596Z,997.78
2017-06-04T00:33:22.786Z,997.73
2017-06-04T00:35:46.972Z,997.66
2017-06-04T00:38:11.169Z,997.65
2017-06-04T00:40:35.438Z,997.62
2017-06-04T00:42:51.175Z,997.6
2017-06-04T00:45:15.418Z,997.6
2017-06-04T00:47:39.677Z,997.63
2017-06-04T00:50:03.876Z,997.66
2017-06-04T00:52:19.618Z,997.64
2017-06-04T00:54:43.865Z,997.64
2017-06-04T00:58:35.976Z,997.72
2017-06-04T01:01:00.176Z,997.68
2017-06-04T01:03:24.372Z,997.65
2017-06-04T01:06:03.304Z,997.58
2017-06-04T01:08:27.530Z,997.53
2017-06-04T01:10:51.661Z,997.52
2017-06-04T01:13:04.112Z,997.51
2017-06-04T01:15:29.291Z,997.55
2017-06-04T01:17:53.473Z,997.53
2017-06-04T01:20:17.669Z,997.54
2017-06-04T01:22:41.830Z,997.53
2017-06-04T01:25:06.015Z,997.53
2017-06-04T01:27:30.205Z,997.54
2017-06-04T01:29:54.388Z,997.58
2017-06-04T01:32:18.588Z,997.55
2017-06-04T01:34:42.788Z,997.54
2017-06-04T01:37:06.946Z,997.59
2017-06-04T01:39:31.117Z,997.55
2017-06-04T01:41:55.317Z,997.53
2017-06-04T01:44:19.503Z,997.58
2017-06-04T01:46:43.706Z,997.58
2017-06-04T01:49:15.460Z,997.59
2017-06-04T01:51:39.637Z,997.55
2017-06-04T01:54:04.717Z,997.59
2017-06-04T01:56:37.410Z,997.61
2017-06-04T01:59:01.584Z,997.55
2017-06-04T02:01:17.279Z,997.54
2017-06-04T02:03:33.013Z,997.5
2017-06-04T02:05:57.135Z,997.51
2017-06-04T02:08:21.223Z,997.5
2017-06-04T02:10:36.926Z,997.54
2017-06-04T02:12:52.572Z,997.43
2017-06-04T02:15:17.706Z,997.55
2017-06-04T02:17:41.770Z,997.59
2017-06-04T02:20:05.858Z,997.65
2017-06-04T02:22:21.503Z,997.68
2017-06-04T02:24:37.217Z,997.7
2017-06-04T02:27:01.319Z,997.68
2017-06-04T02:29:17.018Z,997.71
2017-06-04T02:31:18.913Z,997.79
2017-06-04T02:33:43.047Z,997.82
2017-06-04T02:35:59.749Z,997.84
2017-06-04T02:38:23.833Z,997.86
2017-06-04T02:40:48.010Z,997.87
2017-06-04T02:43:12.096Z,997.95
2017-06-04T02:45:27.796Z,997.95
2017-06-04T02:47:43.464Z,998.01
2017-06-04T02:50:00.070Z,998.05
2017-06-04T02:52:24.147Z,998.1
2017-06-04T02:54:48.233Z,998.06
2017-06-04T02:57:12.313Z,998.12
2017-06-04T02:59:27.955Z,998.12
2017-06-04T03:01:38.382Z,998.15
2017-06-04T03:04:02.440Z,998.16
2017-06-04T03:06:27.452Z,998.19
2017-06-04T03:08:51.521Z,998.21
2017-06-04T03:11:15.606Z,998.19
2017-06-04T03:13:39.693Z,998.22
2017-06-04T03:16:03.772Z,998.25
2017-06-04T03:18:19.462Z,998.29
2017-06-04T03:20:29.873Z,998.3
2017-06-04T03:22:54.005Z,998.25
2017-06-04T03:25:18.078Z,998.28
2017-06-04T03:27:33.771Z,998.35
2017-06-04T03:29:57.849Z,998.4
2017-06-04T03:32:21.926Z,998.37
2017-06-04T03:34:37.581Z,998.42
2017-06-04T03:37:01.699Z,998.35
2017-06-04T03:39:25.774Z,998.4
2017-06-04T03:41:49.869Z,998.47
2017-06-04T03:44:05.539Z,998.38
2017-06-04T03:46:29.662Z,998.4
2017-06-04T03:48:31.508Z,998.35
2017-06-04T03:50:55.580Z,998.31
2017-06-04T03:53:19.644Z,998.35
2017-06-04T03:55:21.514Z,998.54
2017-06-04T03:57:45.598Z,998.54
2017-06-04T04:00:09.673Z,998.65
2017-06-04T04:02:33.650Z,998.75
2017-06-04T04:04:57.740Z,998.76
2017-06-04T04:07:21.816Z,998.9
2017-06-04T04:09:45.893Z,999.09
2017-06-04T04:12:01.543Z,999.2
2017-06-04T04:14:25.565Z,999.32
2017-06-04T04:16:49.647Z,999.35
2017-06-04T04:19:13.722Z,999.42
2017-06-04T04:21:37.805Z,999.55
2017-06-04T04:24:02.924Z,999.6
2017-06-04T04:26:26.990Z,999.69
2017-06-04T04:28:51.091Z,999.76
2017-06-04T04:31:15.169Z,999.85
2017-06-04T04:33:39.242Z,999.95
2017-06-04T04:36:03.337Z,1000.04
2017-06-04T04:38:27.420Z,1000.12
2017-06-04T04:40:51.492Z,1000.19
2017-06-04T04:43:15.579Z,1000.27
2017-06-04T04:45:31.266Z,1000.32
2017-06-04T04:47:55.352Z,1000.39
2017-06-04T04:50:10.994Z,1000.39
2017-06-04T04:52:35.108Z,1000.47
2017-06-04T04:54:50.790Z,1000.5
2017-06-04T04:58:29.060Z,1000.6
2017-06-04T05:00:53.197Z,1000.6
2017-06-04T05:03:17.278Z,1000.62
2017-06-04T05:05:32.926Z,1000.67
2017-06-04T05:07:26.369Z,1000.74
2017-06-04T05:09:41.965Z,1000.76
2017-06-04T05:12:05.991Z,1000.84
2017-06-04T05:14:21.572Z,1000.82
2017-06-04T05:16:45.654Z,1000.88
2017-06-04T05:19:01.293Z,1000.86
2017-06-04T05:21:25.300Z,1000.88
2017-06-04T05:23:49.284Z,1000.93
2017-06-04T05:26:13.367Z,1000.95
2017-06-04T05:28:44.217Z,1000.94
2017-06-04T05:31:08.292Z,1001.03
2017-06-04T05:33:23.953Z,1001.02
2017-06-04T05:35:31.134Z,1001.07
2017-06-04T05:37:55.253Z,1001.11
2017-06-04T05:40:19.335Z,1001.12
2017-06-04T05:42:43.425Z,1001.13
2017-06-04T05:44:59.075Z,1001.21
2017-06-04T05:47:14.695Z,1001.25
2017-06-04T05:49:38.764Z,1001.26
2017-06-04T05:52:02.858Z,1001.34
2017-06-04T05:54:26.928Z,1001.38
2017-06-04T05:56:51.018Z,1001.4
2017-06-04T05:59:15.119Z,1001.43
2017-06-04T06:01:22.290Z,1001.43
2017-06-04T06:03:46.368Z,1001.43
2017-06-04T06:06:10.443Z,1001.47
2017-06-04T06:08:34.531Z,1001.48
2017-06-04T06:10:58.615Z,1001.46
2017-06-04T06:13:22.696Z,1001.46
2017-06-04T06:15:46.778Z,1001.53
2017-06-04T06:18:02.460Z,1001.54
2017-06-04T06:20:26.546Z,1001.58
2017-06-04T06:22:50.635Z,1001.67
2017-06-04T06:25:14.714Z,1001.7
2017-06-04T06:27:39.818Z,1001.8
2017-06-04T06:30:03.892Z,1001.84
2017-06-04T06:32:27.966Z,1001.9
2017-06-04T06:34:52.061Z,1001.88
2017-06-04T06:36:53.933Z,1001.89
2017-06-04T06:39:17.997Z,1001.95
2017-06-04T06:41:42.077Z,1002.03
2017-06-04T06:44:06.153Z,1002.07
2017-06-04T06:46:22.730Z,1002.06
2017-06-04T06:48:46.741Z,1002.14
2017-06-04T06:51:10.829Z,1002.15
2017-06-04T06:53:34.914Z,1002.18
2017-06-04T06:55:58.993Z,1002.21
2017-06-04T06:58:24.104Z,1002.32
2017-06-04T07:00:31.347Z,1002.31
2017-06-04T07:02:55.471Z,1002.31
2017-06-04T07:05:19.560Z,1002.28
2017-06-04T07:07:35.237Z,1002.31
2017-06-04T07:09:59.308Z,1002.37
2017-06-04T07:12:14.900Z,1002.41
2017-06-04T07:14:30.581Z,1002.44
2017-06-04T07:16:46.138Z,1002.49
2017-06-04T07:19:01.708Z,1002.49
2017-06-04T07:21:25.720Z,1002.52
2017-06-04T07:23:49.819Z,1002.52
2017-06-04T07:26:13.907Z,1002.53
2017-06-04T07:28:15.899Z,1002.54
2017-06-04T07:30:40.967Z,1002.57
2017-06-04T07:33:05.046Z,1002.63
2017-06-04T07:35:29.129Z,1002.61
2017-06-04T07:37:53.218Z,1002.68
2017-06-04T07:40:17.412Z,1002.74
2017-06-04T07:42:41.604Z,1002.83
2017-06-04T07:45:20.739Z,1002.85
2017-06-04T07:47:51.175Z,1002.92
2017-06-04T07:50:07.929Z,1002.92
2017-06-04T07:52:34.109Z,1002.97
2017-06-04T07:55:13.239Z,1003
2017-06-04T07:57:37.797Z,1003
2017-06-04T08:01:29.695Z,1003.1
2017-06-04T08:05:30.029Z,1003.09
2017-06-04T08:12:46.857Z,1003.15
2017-06-04T08:15:11.066Z,1003.2
2017-06-04T08:19:06.036Z,1003.21
2017-06-04T08:21:31.993Z,1003.22
2017-06-04T08:23:59.787Z,1003.23
2017-06-04T08:26:02.658Z,1003.33
2017-06-04T08:28:29.512Z,1003.38
2017-06-04T08:31:00.287Z,1003.4
2017-06-04T08:33:17.714Z,1003.45
2017-06-04T08:38:59.892Z,1003.41
2017-06-04T08:41:00.244Z,1003.35
2017-06-04T08:43:24.766Z,1003.44
2017-06-04T08:46:23.985Z,1003.54
2017-06-04T08:48:41.768Z,1003.51
2017-06-04T08:55:06.543Z,1003.51
2017-06-04T08:57:22.757Z,1003.57
2017-06-04T08:59:47.950Z,1003.58
2017-06-04T09:02:12.430Z,1003.62
2017-06-04T09:04:28.413Z,1003.71
2017-06-04T09:06:52.805Z,1003.69
2017-06-04T09:09:17.183Z,1003.76
2017-06-04T09:11:18.665Z,1003.8
2017-06-04T09:13:34.561Z,1003.8
2017-06-04T09:15:36.462Z,1003.8
2017-06-04T09:18:00.658Z,1003.86
2017-06-04T09:20:25.272Z,1003.88
2017-06-04T09:22:49.420Z,1004.02
2017-06-04T09:25:13.593Z,1004.07
2017-06-04T09:27:15.503Z,1004.02
2017-06-04T09:29:22.804Z,1004.02
2017-06-04T09:31:38.518Z,1004.1
2017-06-04T09:34:02.642Z,1004.14
2017-06-04T09:36:26.709Z,1004.14
2017-06-04T09:39:05.341Z,1004.23
2017-06-04T09:41:36.360Z,1004.24
2017-06-04T09:44:00.538Z,1004.32
2017-06-04T09:48:00.846Z,1004.33
2017-06-04T09:50:24.980Z,1004.4
2017-06-04T09:52:50.190Z,1004.41
2017-06-04T09:55:14.380Z,1004.46
2017-06-04T09:57:38.566Z,1004.47
2017-06-04T09:59:54.339Z,1004.5
2017-06-04T10:02:19.567Z,1004.62
2017-06-04T10:04:35.464Z,1004.52
2017-06-04T10:06:51.423Z,1004.64
2017-06-04T10:09:07.311Z,1004.6
2017-06-04T10:11:31.646Z,1004.61
2017-06-04T10:13:56.032Z,1004.58
2017-06-04T10:16:11.968Z,1004.6
2017-06-04T10:18:36.312Z,1004.55
2017-06-04T10:20:52.125Z,1004.66
2017-06-04T10:23:16.617Z,1004.66
2017-06-04T10:25:32.486Z,1004.62
2017-06-04T10:27:56.872Z,1004.71
2017-06-04T10:30:21.270Z,1004.73
2017-06-04T10:32:45.651Z,1004.73
2017-06-04T10:35:10.052Z,1004.7
2017-06-04T10:37:25.923Z,1004.76
2017-06-04T10:39:50.312Z,1004.78
2017-06-04T10:42:14.595Z,1004.8
2017-06-04T10:44:38.884Z,1004.74
2017-06-04T10:46:48.980Z,1004.76
2017-06-04T10:49:13.331Z,1004.8
2017-06-04T10:51:29.270Z,1004.85
2017-06-04T10:53:53.607Z,1004.83
2017-06-04T10:56:18.004Z,1004.83
2017-06-04T10:58:42.289Z,1004.92
2017-06-04T11:01:06.558Z,1004.92
2017-06-04T11:03:30.954Z,1004.87
2017-06-04T11:05:55.245Z,1004.92
2017-06-04T11:08:11.131Z,1005
2017-06-04T11:10:35.413Z,1005.05
2017-06-04T11:12:59.698Z,1005.02
2017-06-04T11:15:23.985Z,1005.02
2017-06-04T11:17:25.492Z,1004.96
2017-06-04T11:19:49.823Z,1004.99
2017-06-04T11:22:14.111Z,1005
2017-06-04T11:24:38.407Z,1004.93
2017-06-04T11:27:02.690Z,1004.99
2017-06-04T11:29:26.972Z,1005.02
2017-06-04T11:31:51.268Z,1004.96
2017-06-04T11:34:15.544Z,1004.94
2017-06-04T11:36:39.833Z,1005
2017-06-04T11:39:04.112Z,1004.94
2017-06-04T11:41:28.403Z,1004.91
2017-06-04T11:43:52.701Z,1004.93
2017-06-04T11:46:08.583Z,1004.86
2017-06-04T11:48:24.529Z,1004.92
2017-06-04T11:50:48.867Z,1004.92
2017-06-04T11:53:13.266Z,1004.92
2017-06-04T11:55:37.644Z,1004.88
2017-06-04T11:58:02.044Z,1004.93
2017-06-04T12:00:26.431Z,1004.95
2017-06-04T12:02:50.816Z,1004.94
2017-06-04T12:04:52.290Z,1004.9
2017-06-04T12:07:16.662Z,1004.91
2017-06-04T12:09:41.043Z,1004.88
2017-06-04T12:12:05.326Z,1004.9
2017-06-04T12:14:29.727Z,1004.84
2017-06-04T12:16:31.168Z,1004.86
2017-06-04T12:18:55.557Z,1004.86
2017-06-04T12:21:19.846Z,1004.87
2017-06-04T12:23:44.131Z,1004.84
2017-06-04T12:26:08.526Z,1004.82
2017-06-04T12:28:24.465Z,1004.8
2017-06-04T12:30:48.819Z,1004.81
2017-06-04T12:33:13.199Z,1004.8
2017-06-04T12:35:29.207Z,1004.79
2017-06-04T12:37:53.578Z,1004.79
2017-06-04T12:40:17.974Z,1004.78
2017-06-04T12:42:42.376Z,1004.73
2017-06-04T12:44:58.420Z,1004.75
2017-06-04T12:47:22.866Z,1004.74
2017-06-04T12:49:38.873Z,1004.68
2017-06-04T12:52:03.341Z,1004.67
2017-06-04T12:54:27.835Z,1004.61
2017-06-04T12:56:29.808Z,1004.56
2017-06-04T12:58:54.402Z,1004.54
2017-06-04T13:01:18.998Z,1004.59
2017-06-04T13:03:43.486Z,1004.63
2017-06-04T13:06:07.975Z,1004.66
2017-06-04T13:08:32.461Z,1004.62
2017-06-04T13:10:56.956Z,1004.5
2017-06-04T13:13:04.523Z,1004.53
2017-06-04T13:15:29.055Z,1004.51
2017-06-04T13:17:39.102Z,1004.51
2017-06-04T13:20:03.584Z,1004.48
2017-06-04T13:22:28.079Z,1004.43
2017-06-04T13:24:52.565Z,1004.49
2017-06-04T13:27:17.064Z,1004.51
2017-06-04T13:29:41.568Z,1004.52
2017-06-04T13:32:06.051Z,1004.48
2017-06-04T13:34:07.549Z,1004.45
2017-06-04T13:36:23.635Z,1004.44
2017-06-04T13:38:48.189Z,1004.39
2017-06-04T13:41:12.698Z,1004.32
2017-06-04T13:43:28.714Z,1004.32
2017-06-04T13:45:44.762Z,1004.36
2017-06-04T13:48:09.259Z,1004.3
2017-06-04T13:50:33.866Z,1004.22
2017-06-04T13:54:34.652Z,1004.14
2017-06-04T13:56:59.199Z,1004.19
2017-06-04T13:59:01.154Z,1004.2
2017-06-04T14:01:17.297Z,1004.17
2017-06-04T14:03:42.903Z,1004.17
2017-06-04T14:06:07.366Z,1004.19
2017-06-04T14:08:31.969Z,1004.16
2017-06-04T14:10:56.566Z,1004.17
2017-06-04T14:13:21.151Z,1004.2
2017-06-04T14:15:31.713Z,1004.13
2017-06-04T14:17:56.317Z,1004.16
2017-06-04T14:20:12.410Z,1004.15
2017-06-04T14:22:37.012Z,1004.18
2017-06-04T14:24:53.119Z,1004.13
2017-06-04T14:26:54.690Z,1004.17
2017-06-04T14:29:19.346Z,1004.14
2017-06-04T14:31:43.944Z,1004.02
2017-06-04T14:34:08.543Z,1004.04
2017-06-04T14:36:33.130Z,1004.01
2017-06-04T14:38:43.709Z,1004.07
2017-06-04T14:44:29.349Z,1004.07
2017-06-04T14:46:55.946Z,1004.07
2017-06-04T14:50:56.880Z,1004.06
2017-06-04T14:53:21.507Z,1004.01
2017-06-04T14:55:37.707Z,1003.98
2017-06-04T14:58:02.295Z,1003.92
2017-06-04T15:00:18.420Z,1003.89
2017-06-04T15:02:43.088Z,1003.91
2017-06-04T15:05:07.676Z,1003.79
2017-06-04T15:07:32.267Z,1003.75
2017-06-04T15:09:56.868Z,1003.72
2017-06-04T15:12:07.467Z,1003.68
2017-06-04T15:14:18.141Z,1003.66
2017-06-04T15:16:42.798Z,1003.66
2017-06-04T15:19:07.497Z,1003.63
2017-06-04T15:21:32.184Z,1003.62
2017-06-04T15:23:56.786Z,1003.62
2017-06-04T15:26:12.913Z,1003.62
2017-06-04T15:28:37.464Z,1003.62
2017-06-04T15:31:02.060Z,1003.64
2017-06-04T15:33:26.662Z,1003.64
2017-06-04T15:35:51.262Z,1003.65
2017-06-04T15:38:15.846Z,1003.56
2017-06-04T15:40:31.940Z,1003.66
2017-06-04T15:42:48.138Z,1003.6
2017-06-04T15:45:12.729Z,1003.68
2017-06-04T15:47:37.330Z,1003.68
2017-06-04T15:50:01.923Z,1003.67
2017-06-04T15:52:26.506Z,1003.62
2017-06-04T15:54:51.108Z,1003.59
2017-06-04T15:57:15.704Z,1003.55
2017-06-04T15:59:26.289Z,1003.56
2017-06-04T16:01:42.459Z,1003.52
2017-06-04T16:03:58.587Z,1003.55
2017-06-04T16:06:23.151Z,1003.46
2017-06-04T16:08:33.735Z,1003.5
2017-06-04T16:10:58.313Z,1003.49
2017-06-04T16:13:22.894Z,1003.48
2017-06-04T16:15:39.047Z,1003.48
2017-06-04T16:18:03.583Z,1003.47
2017-06-04T16:20:28.070Z,1003.45
2017-06-04T16:22:52.563Z,1003.42
2017-06-04T16:25:17.031Z,1003.44
2017-06-04T16:27:41.529Z,1003.49
2017-06-04T16:30:06.011Z,1003.48
2017-06-04T16:32:30.443Z,1003.43
2017-06-04T16:34:54.936Z,1003.44
2017-06-04T16:37:19.425Z,1003.42
2017-06-04T16:39:35.449Z,1003.4
2017-06-04T16:41:59.879Z,1003.47
2017-06-04T16:44:15.861Z,1003.39
2017-06-04T16:46:40.255Z,1003.36
2017-06-04T16:49:04.693Z,1003.33
2017-06-04T16:51:29.102Z,1003.31
2017-06-04T16:53:53.448Z,1003.35
2017-06-04T16:56:17.848Z,1003.46
2017-06-04T16:58:42.227Z,1003.42
2017-06-04T17:01:06.601Z,1003.47
2017-06-04T17:03:30.945Z,1003.53
2017-06-04T17:05:55.292Z,1003.51
2017-06-04T17:08:19.627Z,1003.47
2017-06-04T17:10:43.978Z,1003.46
2017-06-04T17:13:08.283Z,1003.47
2017-06-04T17:15:32.671Z,1003.44
2017-06-04T17:17:34.605Z,1003.45
2017-06-04T17:19:58.995Z,1003.46
2017-06-04T17:22:00.957Z,1003.44
2017-06-04T17:24:25.323Z,1003.39
2017-06-04T17:26:49.644Z,1003.33
2017-06-04T17:29:13.968Z,1003.36
2017-06-04T17:31:24.468Z,1003.33
2017-06-04T17:33:26.381Z,1003.33
2017-06-04T17:35:50.743Z,1003.34
2017-06-04T17:38:01.244Z,1003.34
2017-06-04T17:40:25.665Z,1003.37
2017-06-04T17:42:41.598Z,1003.38
2017-06-04T17:44:40.638Z,1003.36
2017-06-04T17:47:05.024Z,1003.43
2017-06-04T17:49:29.416Z,1003.41
2017-06-04T17:51:53.710Z,1003.48
2017-06-04T17:54:09.639Z,1003.47
2017-06-04T17:56:33.988Z,1003.45
2017-06-04T17:58:58.281Z,1003.42
2017-06-04T18:01:22.655Z,1003.47
2017-06-04T18:03:24.098Z,1003.45
2017-06-04T18:05:48.501Z,1003.44
2017-06-04T18:08:12.883Z,1003.44
2017-06-04T18:10:37.285Z,1003.41
2017-06-04T18:12:53.174Z,1003.43
2017-06-04T18:15:17.545Z,1003.46
2017-06-04T18:17:41.836Z,1003.48
2017-06-04T18:20:06.125Z,1003.46
2017-06-04T18:22:30.428Z,1003.51
2017-06-04T18:24:54.697Z,1003.51
2017-06-04T18:26:56.152Z,1003.56
2017-06-04T18:29:20.446Z,1003.6
2017-06-04T18:31:44.719Z,1003.57
2017-06-04T18:34:09.024Z,1003.61
2017-06-04T18:36:33.292Z,1003.54
2017-06-04T18:38:57.585Z,1003.57
2017-06-04T18:41:21.855Z,1003.53
2017-06-04T18:43:46.144Z,1003.51
2017-06-04T18:46:10.431Z,1003.55
2017-06-04T18:48:34.745Z,1003.56
2017-06-04T18:50:59.016Z,1003.62
2017-06-04T18:53:23.291Z,1003.65
2017-06-04T18:55:39.074Z,1003.67
2017-06-04T18:57:40.487Z,1003.65
2017-06-04T18:59:56.316Z,1003.68
2017-06-04T19:02:20.601Z,1003.65
2017-06-04T19:04:30.589Z,1003.71
2017-06-04T19:06:54.831Z,1003.66
2017-06-04T19:09:19.012Z,1003.72
2017-06-04T19:11:43.223Z,1003.64
2017-06-04T19:14:07.380Z,1003.66
2017-06-04T19:16:31.559Z,1003.63
2017-06-04T19:18:55.748Z,1003.59
2017-06-04T19:21:19.938Z,1003.55
2017-06-04T19:23:44.122Z,1003.57
2017-06-04T19:26:08.294Z,1003.57
2017-06-04T19:28:32.376Z,1003.62
2017-06-04T19:30:56.570Z,1003.65
2017-06-04T19:33:20.758Z,1003.65
2017-06-04T19:35:36.489Z,1003.63
2017-06-04T19:38:00.606Z,1003.63
2017-06-04T19:40:24.701Z,1003.62
2017-06-04T19:42:48.876Z,1003.6
2017-06-04T19:45:12.965Z,1003.63
2017-06-04T19:47:28.711Z,1003.64
2017-06-04T19:49:38.640Z,1003.66
2017-06-04T19:52:02.767Z,1003.65
2017-06-04T19:54:26.862Z,1003.68
2017-06-04T19:56:50.947Z,1003.69
2017-06-04T19:59:06.626Z,1003.75
2017-06-04T20:01:30.702Z,1003.74
2017-06-04T20:03:32.305Z,1003.76
2017-06-04T20:05:56.443Z,1003.78
2017-06-04T20:08:20.523Z,1003.78
2017-06-04T20:10:44.604Z,1003.77
2017-06-04T20:13:08.688Z,1003.8
2017-06-04T20:15:32.764Z,1003.86
2017-06-04T20:17:56.851Z,1003.9
2017-06-04T20:20:20.933Z,1003.9
2017-06-04T20:22:22.318Z,1003.89
2017-06-04T20:24:46.465Z,1003.9
2017-06-04T20:27:10.544Z,1003.89
2017-06-04T20:29:34.624Z,1003.92
2017-06-04T20:31:50.320Z,1003.94
2017-06-04T20:34:14.393Z,1003.88
2017-06-04T20:36:38.484Z,1003.87
2017-06-04T20:39:02.560Z,1003.84
2017-06-04T20:41:26.632Z,1003.77
2017-06-04T20:43:50.716Z,1003.7
2017-06-04T20:46:06.265Z,1003.74
2017-06-04T20:48:30.285Z,1003.77
2017-06-04T20:50:54.373Z,1003.75
2017-06-04T20:53:18.448Z,1003.77
2017-06-04T20:55:42.533Z,1003.72
2017-06-04T20:58:06.610Z,1003.76
2017-06-04T20:59:59.533Z,1003.72
2017-06-04T21:02:23.639Z,1003.72
2017-06-04T21:04:47.716Z,1003.71
2017-06-04T21:07:11.798Z,1003.73
2017-06-04T21:09:27.385Z,1003.73
2017-06-04T21:11:51.465Z,1003.69
2017-06-04T21:14:07.105Z,1003.64
2017-06-04T21:16:31.133Z,1003.59
2017-06-04T21:18:55.214Z,1003.61
2017-06-04T21:21:02.367Z,1003.6
2017-06-04T21:23:26.370Z,1003.57
2017-06-04T21:25:50.466Z,1003.59
2017-06-04T21:28:07.064Z,1003.58
2017-06-04T21:30:31.064Z,1003.52
2017-06-04T21:32:55.022Z,1003.54
2017-06-04T21:35:10.594Z,1003.61
2017-06-04T21:37:34.573Z,1003.61
2017-06-04T21:39:58.559Z,1003.63
2017-06-04T21:42:22.540Z,1003.64
2017-06-04T21:44:38.083Z,1003.6
2017-06-04T21:47:02.101Z,1003.65
2017-06-04T21:49:26.074Z,1003.62
2017-06-04T21:51:51.086Z,1003.56
2017-06-04T21:54:15.055Z,1003.58
2017-06-04T21:56:39.029Z,1003.53
2017-06-04T21:59:02.921Z,1003.51
2017-06-04T22:01:26.888Z,1003.52
2017-06-04T22:03:50.773Z,1003.5
2017-06-04T22:06:14.650Z,1003.53
2017-06-04T22:08:30.194Z,1003.57
2017-06-04T22:10:54.093Z,1003.6
2017-06-04T22:13:10.589Z,1003.6
2017-06-04T22:15:26.086Z,1003.65
2017-06-04T22:17:49.962Z,1003.69
2017-06-04T22:20:14.878Z,1003.73
2017-06-04T22:22:38.853Z,1003.76
2017-06-04T22:25:02.826Z,1003.77
2017-06-04T22:27:26.701Z,1003.7
2017-06-04T22:29:50.578Z,1003.69
2017-06-04T22:32:14.453Z,1003.71
2017-06-04T22:37:50.583Z,1003.68
2017-06-04T22:42:00.647Z,1003.64
2017-06-04T22:46:00.646Z,1003.6
2017-06-04T22:49:52.214Z,1003.57
2017-06-04T22:53:52.202Z,1003.56
2017-06-04T22:56:18.137Z,1003.54
2017-06-04T22:58:43.963Z,1003.56
2017-06-04T23:02:43.961Z,1003.54
2017-06-04T23:05:15.354Z,1003.57
2017-06-04T23:07:47.822Z,1003.6
2017-06-04T23:11:56.711Z,1003.6
2017-06-04T23:15:57.664Z,1003.63
2017-06-04T23:19:49.254Z,1003.63
2017-06-04T23:23:49.242Z,1003.55
2017-06-04T23:26:21.662Z,1003.53
2017-06-04T23:29:01.214Z,1003.53
2017-06-04T23:31:40.658Z,1003.49
2017-06-04T23:34:12.119Z,1003.45
2017-06-04T23:36:35.880Z,1003.5
2017-06-04T23:39:00.688Z,1003.52
2017-06-04T23:43:00.661Z,1003.6
2017-06-04T23:47:00.548Z,1003.69
2017-06-04T23:51:00.496Z,1003.65
2017-06-04T23:53:02.273Z,1003.65
2017-06-04T23:57:02.260Z,1003.67
